sensor_id;sensor_type;location;lat;lon;timestamp;P1;durP1;ratioP1;P2;durP2;ratioP2
3177;SDS011;38141;42.666;23.344;2023-01-20T00:00:12;3.90;;;2.10;;
3177;SDS011;38141;42.666;23.344;2023-01-20T00:02:39;2.70;;;1.77;;
3177;SDS011;38141;42.666;23.344;2023-01-20T00:05:07;1.93;;;1.40;;
3177;SDS011;38141;42.666;23.344;2023-01-20T00:07:34;4.70;;;1.90;;
3177;SDS011;38141;42.666;23.344;2023-01-20T00:10:00;3.03;;;2.10;;
3177;SDS011;38141;42.666;23.344;2023-01-20T00:12:28;2.67;;;1.60;;
3177;SDS011;38141;42.666;23.344;2023-01-20T00:14:55;3.13;;;2.00;;
3177;SDS011;38141;42.666;23.344;2023-01-20T00:17:24;2.20;;;1.93;;
3177;SDS011;38141;42.666;23.344;2023-01-20T00:19:50;2.67;;;1.83;;
3177;SDS011;38141;42.666;23.344;2023-01-20T00:22:17;5.97;;;2.10;;
3177;SDS011;38141;42.666;23.344;2023-01-20T00:24:44;4.73;;;2.10;;
3177;SDS011;38141;42.666;23.344;2023-01-20T00:27:11;4.13;;;2.70;;
3177;SDS011;38141;42.666;23.344;2023-01-20T00:29:38;3.80;;;2.10;;
3177;SDS011;38141;42.666;23.344;2023-01-20T00:32:08;2.90;;;1.87;;
3177;SDS011;38141;42.666;23.344;2023-01-20T00:34:36;2.00;;;1.63;;
3177;SDS011;38141;42.666;23.344;2023-01-20T00:37:03;3.00;;;1.60;;
3177;SDS011;38141;42.666;23.344;2023-01-20T00:39:30;2.00;;;1.40;;
3177;SDS011;38141;42.666;23.344;2023-01-20T00:41:57;1.57;;;1.47;;
3177;SDS011;38141;42.666;23.344;2023-01-20T00:44:24;2.00;;;1.43;;
3177;SDS011;38141;42.666;23.344;2023-01-20T00:46:50;2.07;;;1.30;;
3177;SDS011;38141;42.666;23.344;2023-01-20T00:49:17;1.07;;;0.90;;
3177;SDS011;38141;42.666;23.344;2023-01-20T00:51:45;1.40;;;1.10;;
3177;SDS011;38141;42.666;23.344;2023-01-20T00:54:12;1.17;;;0.90;;
3177;SDS011;38141;42.666;23.344;2023-01-20T00:56:39;1.40;;;0.83;;
3177;SDS011;38141;42.666;23.344;2023-01-20T00:59:07;1.57;;;1.47;;
3177;SDS011;38141;42.666;23.344;2023-01-20T01:01:34;2.40;;;1.50;;
3177;SDS011;38141;42.666;23.344;2023-01-20T01:04:02;3.27;;;2.10;;
3177;SDS011;38141;42.666;23.344;2023-01-20T01:06:30;4.53;;;2.37;;
3177;SDS011;38141;42.666;23.344;2023-01-20T01:08:59;2.83;;;2.13;;
3177;SDS011;38141;42.666;23.344;2023-01-20T01:11:25;2.90;;;1.83;;
3177;SDS011;38141;42.666;23.344;2023-01-20T01:13:54;3.60;;;1.90;;
3177;SDS011;38141;42.666;23.344;2023-01-20T01:16:21;4.63;;;1.80;;
3177;SDS011;38141;42.666;23.344;2023-01-20T01:18:51;3.67;;;2.00;;
3177;SDS011;38141;42.666;23.344;2023-01-20T01:21:18;1.83;;;1.40;;
3177;SDS011;38141;42.666;23.344;2023-01-20T01:23:45;1.30;;;1.20;;
3177;SDS011;38141;42.666;23.344;2023-01-20T01:26:13;4.37;;;1.30;;
3177;SDS011;38141;42.666;23.344;2023-01-20T01:28:40;1.30;;;1.20;;
3177;SDS011;38141;42.666;23.344;2023-01-20T01:31:08;1.87;;;1.17;;
3177;SDS011;38141;42.666;23.344;2023-01-20T01:33:35;1.07;;;0.97;;
3177;SDS011;38141;42.666;23.344;2023-01-20T01:36:02;2.43;;;1.50;;
3177;SDS011;38141;42.666;23.344;2023-01-20T01:38:30;2.07;;;1.57;;
3177;SDS011;38141;42.666;23.344;2023-01-20T01:40:57;1.47;;;1.00;;
3177;SDS011;38141;42.666;23.344;2023-01-20T01:43:26;1.13;;;1.03;;
3177;SDS011;38141;42.666;23.344;2023-01-20T01:45:56;1.47;;;1.17;;
3177;SDS011;38141;42.666;23.344;2023-01-20T01:48:24;1.50;;;1.20;;
3177;SDS011;38141;42.666;23.344;2023-01-20T01:50:55;4.70;;;1.53;;
3177;SDS011;38141;42.666;23.344;2023-01-20T01:53:26;2.17;;;1.50;;
3177;SDS011;38141;42.666;23.344;2023-01-20T01:55:57;5.37;;;2.73;;
3177;SDS011;38141;42.666;23.344;2023-01-20T01:58:31;3.70;;;2.30;;
3177;SDS011;38141;42.666;23.344;2023-01-20T02:01:01;5.80;;;2.97;;
3177;SDS011;38141;42.666;23.344;2023-01-20T02:03:34;6.27;;;3.30;;
3177;SDS011;38141;42.666;23.344;2023-01-20T02:06:10;5.60;;;2.93;;
3177;SDS011;38141;42.666;23.344;2023-01-20T02:08:37;6.33;;;2.30;;
3177;SDS011;38141;42.666;23.344;2023-01-20T02:11:05;3.50;;;2.33;;
3177;SDS011;38141;42.666;23.344;2023-01-20T02:13:33;4.63;;;2.93;;
3177;SDS011;38141;42.666;23.344;2023-01-20T02:16:01;5.23;;;2.73;;
3177;SDS011;38141;42.666;23.344;2023-01-20T02:18:43;3.60;;;2.30;;
3177;SDS011;38141;42.666;23.344;2023-01-20T02:21:28;3.47;;;2.43;;
3177;SDS011;38141;42.666;23.344;2023-01-20T02:24:32;3.60;;;1.60;;
3177;SDS011;38141;42.666;23.344;2023-01-20T02:27:16;1.87;;;1.60;;
3177;SDS011;38141;42.666;23.344;2023-01-20T02:33:06;3.07;;;2.20;;
3177;SDS011;38141;42.666;23.344;2023-01-20T02:35:39;2.23;;;2.03;;
3177;SDS011;38141;42.666;23.344;2023-01-20T02:38:12;2.00;;;1.50;;
3177;SDS011;38141;42.666;23.344;2023-01-20T02:40:48;2.13;;;1.30;;
3177;SDS011;38141;42.666;23.344;2023-01-20T02:43:22;1.50;;;1.40;;
3177;SDS011;38141;42.666;23.344;2023-01-20T02:45:59;2.87;;;1.40;;
3177;SDS011;38141;42.666;23.344;2023-01-20T02:48:32;2.30;;;1.40;;
3177;SDS011;38141;42.666;23.344;2023-01-20T02:51:04;3.00;;;2.00;;
3177;SDS011;38141;42.666;23.344;2023-01-20T02:53:35;3.60;;;1.90;;
3177;SDS011;38141;42.666;23.344;2023-01-20T02:56:06;2.80;;;1.77;;
3177;SDS011;38141;42.666;23.344;2023-01-20T02:58:36;2.50;;;2.30;;
3177;SDS011;38141;42.666;23.344;2023-01-20T03:01:08;4.83;;;2.27;;
3177;SDS011;38141;42.666;23.344;2023-01-20T03:03:42;3.00;;;2.27;;
3177;SDS011;38141;42.666;23.344;2023-01-20T03:06:12;1.67;;;1.57;;
3177;SDS011;38141;42.666;23.344;2023-01-20T03:08:43;3.20;;;2.00;;
3177;SDS011;38141;42.666;23.344;2023-01-20T03:11:13;3.40;;;2.27;;
3177;SDS011;38141;42.666;23.344;2023-01-20T03:13:42;3.20;;;2.90;;
3177;SDS011;38141;42.666;23.344;2023-01-20T03:16:15;4.30;;;2.07;;
3177;SDS011;38141;42.666;23.344;2023-01-20T03:18:45;2.63;;;1.67;;
3177;SDS011;38141;42.666;23.344;2023-01-20T03:21:12;2.40;;;1.70;;
3177;SDS011;38141;42.666;23.344;2023-01-20T03:23:40;1.80;;;1.67;;
3177;SDS011;38141;42.666;23.344;2023-01-20T03:26:10;2.57;;;2.00;;
3177;SDS011;38141;42.666;23.344;2023-01-20T03:28:39;2.00;;;1.67;;
3177;SDS011;38141;42.666;23.344;2023-01-20T03:31:09;3.40;;;1.80;;
3177;SDS011;38141;42.666;23.344;2023-01-20T03:33:39;2.70;;;1.50;;
3177;SDS011;38141;42.666;23.344;2023-01-20T03:36:09;3.43;;;1.17;;
3177;SDS011;38141;42.666;23.344;2023-01-20T03:38:37;1.53;;;1.07;;
3177;SDS011;38141;42.666;23.344;2023-01-20T03:41:06;2.27;;;1.20;;
3177;SDS011;38141;42.666;23.344;2023-01-20T03:43:42;1.43;;;0.97;;
3177;SDS011;38141;42.666;23.344;2023-01-20T03:46:17;1.90;;;1.20;;
3177;SDS011;38141;42.666;23.344;2023-01-20T03:48:50;1.20;;;1.10;;
3177;SDS011;38141;42.666;23.344;2023-01-20T03:51:26;1.17;;;0.90;;
3177;SDS011;38141;42.666;23.344;2023-01-20T03:53:59;1.13;;;1.03;;
3177;SDS011;38141;42.666;23.344;2023-01-20T03:56:30;1.23;;;1.00;;
3177;SDS011;38141;42.666;23.344;2023-01-20T03:59:03;3.43;;;1.10;;
3177;SDS011;38141;42.666;23.344;2023-01-20T04:01:34;1.67;;;1.10;;
3177;SDS011;38141;42.666;23.344;2023-01-20T04:04:04;4.70;;;1.20;;
3177;SDS011;38141;42.666;23.344;2023-01-20T04:06:38;3.87;;;1.27;;
3177;SDS011;38141;42.666;23.344;2023-01-20T04:09:09;2.27;;;1.60;;
3177;SDS011;38141;42.666;23.344;2023-01-20T04:11:38;1.40;;;1.30;;
3177;SDS011;38141;42.666;23.344;2023-01-20T04:14:07;1.50;;;1.40;;
3177;SDS011;38141;42.666;23.344;2023-01-20T04:16:34;2.33;;;1.50;;
3177;SDS011;38141;42.666;23.344;2023-01-20T04:19:02;2.03;;;1.50;;
3177;SDS011;38141;42.666;23.344;2023-01-20T04:21:30;5.10;;;2.40;;
3177;SDS011;38141;42.666;23.344;2023-01-20T04:24:02;4.83;;;2.60;;
3177;SDS011;38141;42.666;23.344;2023-01-20T04:26:32;4.77;;;3.20;;
3177;SDS011;38141;42.666;23.344;2023-01-20T04:28:59;5.47;;;3.27;;
3177;SDS011;38141;42.666;23.344;2023-01-20T04:31:32;4.33;;;3.43;;
3177;SDS011;38141;42.666;23.344;2023-01-20T04:33:59;3.40;;;3.10;;
3177;SDS011;38141;42.666;23.344;2023-01-20T04:36:26;4.90;;;3.10;;
3177;SDS011;38141;42.666;23.344;2023-01-20T04:38:53;2.90;;;2.20;;
3177;SDS011;38141;42.666;23.344;2023-01-20T04:41:22;2.90;;;2.53;;
3177;SDS011;38141;42.666;23.344;2023-01-20T04:43:48;4.33;;;2.93;;
3177;SDS011;38141;42.666;23.344;2023-01-20T04:46:15;4.20;;;2.23;;
3177;SDS011;38141;42.666;23.344;2023-01-20T04:48:43;5.93;;;2.67;;
3177;SDS011;38141;42.666;23.344;2023-01-20T04:51:10;3.80;;;2.50;;
3177;SDS011;38141;42.666;23.344;2023-01-20T04:53:38;3.30;;;3.00;;
3177;SDS011;38141;42.666;23.344;2023-01-20T04:56:08;3.80;;;2.47;;
3177;SDS011;38141;42.666;23.344;2023-01-20T04:58:39;3.23;;;2.30;;
3177;SDS011;38141;42.666;23.344;2023-01-20T05:28:25;4.87;;;3.27;;
3177;SDS011;38141;42.666;23.344;2023-01-20T05:31:30;5.40;;;3.20;;
3177;SDS011;38141;42.666;23.344;2023-01-20T05:33:58;8.13;;;3.70;;
3177;SDS011;38141;42.666;23.344;2023-01-20T05:36:39;9.00;;;4.10;;
3177;SDS011;38141;42.666;23.344;2023-01-20T05:39:06;3.70;;;3.40;;
3177;SDS011;38141;42.666;23.344;2023-01-20T05:41:41;5.50;;;2.70;;
3177;SDS011;38141;42.666;23.344;2023-01-20T05:44:16;5.20;;;2.90;;
3177;SDS011;38141;42.666;23.344;2023-01-20T05:46:46;6.57;;;3.47;;
3177;SDS011;38141;42.666;23.344;2023-01-20T05:49:27;4.50;;;3.57;;
3177;SDS011;38141;42.666;23.344;2023-01-20T05:52:08;7.23;;;3.77;;
3177;SDS011;38141;42.666;23.344;2023-01-20T05:54:35;7.50;;;3.70;;
3177;SDS011;38141;42.666;23.344;2023-01-20T06:03:28;7.70;;;3.80;;
3177;SDS011;38141;42.666;23.344;2023-01-20T06:06:10;7.37;;;4.63;;
3177;SDS011;38141;42.666;23.344;2023-01-20T06:08:58;7.00;;;4.70;;
3177;SDS011;38141;42.666;23.344;2023-01-20T06:14:48;6.60;;;3.60;;
3177;SDS011;38141;42.666;23.344;2023-01-20T06:24:03;8.53;;;4.60;;
3177;SDS011;38141;42.666;23.344;2023-01-20T06:26:31;5.50;;;4.43;;
3177;SDS011;38141;42.666;23.344;2023-01-20T06:29:12;7.73;;;4.20;;
3177;SDS011;38141;42.666;23.344;2023-01-20T06:31:40;7.53;;;4.23;;
3177;SDS011;38141;42.666;23.344;2023-01-20T06:34:10;7.17;;;5.40;;
3177;SDS011;38141;42.666;23.344;2023-01-20T06:36:39;7.60;;;5.20;;
3177;SDS011;38141;42.666;23.344;2023-01-20T06:58:19;5.07;;;3.77;;
3177;SDS011;38141;42.666;23.344;2023-01-20T07:01:30;6.80;;;3.60;;
3177;SDS011;38141;42.666;23.344;2023-01-20T07:04:03;5.40;;;3.50;;
3177;SDS011;38141;42.666;23.344;2023-01-20T07:07:07;5.67;;;4.30;;
3177;SDS011;38141;42.666;23.344;2023-01-20T07:09:43;5.37;;;4.20;;
3177;SDS011;38141;42.666;23.344;2023-01-20T07:12:24;8.90;;;4.93;;
3177;SDS011;38141;42.666;23.344;2023-01-20T07:28:17;11.07;;;7.40;;
3177;SDS011;38141;42.666;23.344;2023-01-20T07:35:59;8.50;;;5.07;;
3177;SDS011;38141;42.666;23.344;2023-01-20T07:38:27;6.80;;;5.17;;
3177;SDS011;38141;42.666;23.344;2023-01-20T07:40:55;10.30;;;6.63;;
3177;SDS011;38141;42.666;23.344;2023-01-20T07:43:25;9.30;;;6.63;;
3177;SDS011;38141;42.666;23.344;2023-01-20T12:47:04;2.10;;;1.90;;
3177;SDS011;38141;42.666;23.344;2023-01-20T13:18:57;2.27;;;1.83;;
3177;SDS011;38141;42.666;23.344;2023-01-20T13:21:30;2.50;;;1.77;;
3177;SDS011;38141;42.666;23.344;2023-01-20T13:24:05;5.30;;;3.53;;
3177;SDS011;38141;42.666;23.344;2023-01-20T13:26:53;6.40;;;2.23;;
3177;SDS011;38141;42.666;23.344;2023-01-20T13:29:44;3.00;;;2.50;;
3177;SDS011;38141;42.666;23.344;2023-01-20T13:32:30;3.07;;;2.63;;
3177;SDS011;38141;42.666;23.344;2023-01-20T13:38:21;5.07;;;2.97;;
3177;SDS011;38141;42.666;23.344;2023-01-20T13:40:58;4.50;;;2.37;;
3177;SDS011;38141;42.666;23.344;2023-01-20T13:43:46;2.50;;;1.93;;
3177;SDS011;38141;42.666;23.344;2023-01-20T13:49:45;2.47;;;2.10;;
3177;SDS011;38141;42.666;23.344;2023-01-20T14:28:44;3.00;;;2.20;;
3177;SDS011;38141;42.666;23.344;2023-01-20T14:54:40;2.70;;;2.07;;
3177;SDS011;38141;42.666;23.344;2023-01-20T14:57:19;9.13;;;3.60;;
3177;SDS011;38141;42.666;23.344;2023-01-20T15:03:12;2.27;;;2.13;;
3177;SDS011;38141;42.666;23.344;2023-01-20T15:05:51;3.37;;;2.70;;
3177;SDS011;38141;42.666;23.344;2023-01-20T15:08:23;3.53;;;2.83;;
3177;SDS011;38141;42.666;23.344;2023-01-20T15:14:10;4.93;;;3.33;;
3177;SDS011;38141;42.666;23.344;2023-01-20T15:16:47;3.97;;;3.27;;
3177;SDS011;38141;42.666;23.344;2023-01-20T15:19:17;3.80;;;3.10;;
3177;SDS011;38141;42.666;23.344;2023-01-20T15:21:54;4.07;;;3.40;;
3177;SDS011;38141;42.666;23.344;2023-01-20T15:24:35;5.87;;;3.87;;
3177;SDS011;38141;42.666;23.344;2023-01-20T15:27:24;4.80;;;3.80;;
3177;SDS011;38141;42.666;23.344;2023-01-20T15:30:12;46.93;;;25.70;;
3177;SDS011;38141;42.666;23.344;2023-01-20T15:32:49;8.03;;;6.30;;
3177;SDS011;38141;42.666;23.344;2023-01-20T15:35:19;6.27;;;4.30;;
3177;SDS011;38141;42.666;23.344;2023-01-20T15:37:50;3.67;;;3.20;;
3177;SDS011;38141;42.666;23.344;2023-01-20T15:40:20;4.40;;;3.50;;
3177;SDS011;38141;42.666;23.344;2023-01-20T15:42:50;11.17;;;7.43;;
3177;SDS011;38141;42.666;23.344;2023-01-20T15:45:17;4.20;;;3.80;;
3177;SDS011;38141;42.666;23.344;2023-01-20T15:47:45;4.70;;;4.03;;
3177;SDS011;38141;42.666;23.344;2023-01-20T15:50:16;4.93;;;4.40;;
3177;SDS011;38141;42.666;23.344;2023-01-20T15:52:44;44.03;;;22.60;;
3177;SDS011;38141;42.666;23.344;2023-01-20T15:55:12;6.83;;;4.40;;
3177;SDS011;38141;42.666;23.344;2023-01-20T15:57:41;6.57;;;4.93;;
3177;SDS011;38141;42.666;23.344;2023-01-20T16:00:16;9.17;;;5.53;;
3177;SDS011;38141;42.666;23.344;2023-01-20T16:02:45;5.23;;;4.10;;
3177;SDS011;38141;42.666;23.344;2023-01-20T16:05:12;6.60;;;4.70;;
3177;SDS011;38141;42.666;23.344;2023-01-20T16:10:38;5.47;;;4.30;;
3177;SDS011;38141;42.666;23.344;2023-01-20T16:13:06;5.93;;;4.40;;
3177;SDS011;38141;42.666;23.344;2023-01-20T16:15:45;6.60;;;5.13;;
3177;SDS011;38141;42.666;23.344;2023-01-20T16:18:16;7.97;;;4.87;;
3177;SDS011;38141;42.666;23.344;2023-01-20T16:23:34;7.27;;;4.97;;
3177;SDS011;38141;42.666;23.344;2023-01-20T16:26:01;5.87;;;4.50;;
3177;SDS011;38141;42.666;23.344;2023-01-20T16:28:36;6.30;;;4.80;;
3177;SDS011;38141;42.666;23.344;2023-01-20T16:31:06;5.60;;;4.60;;
3177;SDS011;38141;42.666;23.344;2023-01-20T16:33:35;6.30;;;5.17;;
3177;SDS011;38141;42.666;23.344;2023-01-20T16:36:26;11.47;;;7.83;;
3177;SDS011;38141;42.666;23.344;2023-01-20T16:39:08;9.67;;;6.43;;
3177;SDS011;38141;42.666;23.344;2023-01-20T16:41:45;7.87;;;5.20;;
3177;SDS011;38141;42.666;23.344;2023-01-20T16:44:27;8.87;;;5.40;;
3177;SDS011;38141;42.666;23.344;2023-01-20T16:47:09;9.43;;;5.43;;
3177;SDS011;38141;42.666;23.344;2023-01-20T16:49:36;5.77;;;5.00;;
3177;SDS011;38141;42.666;23.344;2023-01-20T16:52:08;7.10;;;5.17;;
3177;SDS011;38141;42.666;23.344;2023-01-20T16:54:39;8.83;;;5.90;;
3177;SDS011;38141;42.666;23.344;2023-01-20T16:57:31;12.10;;;7.30;;
3177;SDS011;38141;42.666;23.344;2023-01-20T16:59:59;9.87;;;7.20;;
3177;SDS011;38141;42.666;23.344;2023-01-20T17:02:41;11.97;;;7.07;;
3177;SDS011;38141;42.666;23.344;2023-01-20T17:05:08;9.50;;;6.90;;
3177;SDS011;38141;42.666;23.344;2023-01-20T17:07:42;12.80;;;7.80;;
3177;SDS011;38141;42.666;23.344;2023-01-20T17:10:11;13.47;;;8.47;;
3177;SDS011;38141;42.666;23.344;2023-01-20T17:12:38;24.93;;;13.67;;
3177;SDS011;38141;42.666;23.344;2023-01-20T17:15:10;10.43;;;6.90;;
3177;SDS011;38141;42.666;23.344;2023-01-20T17:18:02;9.43;;;7.03;;
3177;SDS011;38141;42.666;23.344;2023-01-20T17:20:30;8.53;;;7.07;;
3177;SDS011;38141;42.666;23.344;2023-01-20T17:23:09;7.97;;;6.30;;
3177;SDS011;38141;42.666;23.344;2023-01-20T17:28:16;8.70;;;6.47;;
3177;SDS011;38141;42.666;23.344;2023-01-20T17:30:59;7.30;;;6.20;;
3177;SDS011;38141;42.666;23.344;2023-01-20T17:36:47;9.67;;;6.30;;
3177;SDS011;38141;42.666;23.344;2023-01-20T17:39:24;7.70;;;6.20;;
3177;SDS011;38141;42.666;23.344;2023-01-20T17:45:07;10.10;;;7.07;;
3177;SDS011;38141;42.666;23.344;2023-01-20T17:47:34;9.90;;;7.33;;
3177;SDS011;38141;42.666;23.344;2023-01-20T17:50:25;10.43;;;7.33;;
3177;SDS011;38141;42.666;23.344;2023-01-20T17:53:06;11.70;;;8.07;;
3177;SDS011;38141;42.666;23.344;2023-01-20T17:55:33;10.27;;;6.90;;
3177;SDS011;38141;42.666;23.344;2023-01-20T18:01:09;9.30;;;6.60;;
3177;SDS011;38141;42.666;23.344;2023-01-20T18:06:36;7.97;;;6.13;;
3177;SDS011;38141;42.666;23.344;2023-01-20T18:09:04;7.90;;;6.03;;
3177;SDS011;38141;42.666;23.344;2023-01-20T18:14:18;10.27;;;7.37;;
3177;SDS011;38141;42.666;23.344;2023-01-20T18:16:52;33.50;;;17.77;;
3177;SDS011;38141;42.666;23.344;2023-01-20T18:25:24;8.00;;;6.30;;
3177;SDS011;38141;42.666;23.344;2023-01-20T18:27:57;8.50;;;6.73;;
3177;SDS011;38141;42.666;23.344;2023-01-20T18:30:36;9.40;;;6.50;;
3177;SDS011;38141;42.666;23.344;2023-01-20T18:33:12;9.20;;;6.90;;
3177;SDS011;38141;42.666;23.344;2023-01-20T18:35:40;9.60;;;6.93;;
3177;SDS011;38141;42.666;23.344;2023-01-20T18:38:33;9.30;;;7.00;;
3177;SDS011;38141;42.666;23.344;2023-01-20T18:41:10;7.77;;;6.20;;
3177;SDS011;38141;42.666;23.344;2023-01-20T18:46:38;9.93;;;6.67;;
3177;SDS011;38141;42.666;23.344;2023-01-20T18:49:05;9.03;;;6.60;;
3177;SDS011;38141;42.666;23.344;2023-01-20T18:51:45;8.83;;;6.73;;
3177;SDS011;38141;42.666;23.344;2023-01-20T18:54:13;10.57;;;7.20;;
3177;SDS011;38141;42.666;23.344;2023-01-20T18:56:51;10.10;;;7.80;;
3177;SDS011;38141;42.666;23.344;2023-01-20T18:59:22;10.43;;;7.27;;
3177;SDS011;38141;42.666;23.344;2023-01-20T19:01:50;9.60;;;7.77;;
3177;SDS011;38141;42.666;23.344;2023-01-20T19:04:35;10.93;;;8.20;;
3177;SDS011;38141;42.666;23.344;2023-01-20T19:07:11;13.30;;;9.07;;
3177;SDS011;38141;42.666;23.344;2023-01-20T19:09:56;17.60;;;8.77;;
3177;SDS011;38141;42.666;23.344;2023-01-20T19:16:03;13.40;;;8.90;;
3177;SDS011;38141;42.666;23.344;2023-01-20T19:21:43;11.60;;;8.70;;
3177;SDS011;38141;42.666;23.344;2023-01-20T19:27:47;17.53;;;10.47;;
3177;SDS011;38141;42.666;23.344;2023-01-20T19:34:15;16.50;;;10.30;;
3177;SDS011;38141;42.666;23.344;2023-01-20T19:36:49;14.17;;;10.17;;
3177;SDS011;38141;42.666;23.344;2023-01-20T19:39:24;17.90;;;12.13;;
3177;SDS011;38141;42.666;23.344;2023-01-20T19:42:06;26.03;;;16.23;;
3177;SDS011;38141;42.666;23.344;2023-01-20T20:08:14;12.00;;;7.87;;
3177;SDS011;38141;42.666;23.344;2023-01-20T20:10:41;16.40;;;9.77;;
3177;SDS011;38141;42.666;23.344;2023-01-20T20:13:14;12.50;;;8.57;;
3177;SDS011;38141;42.666;23.344;2023-01-20T20:27:47;11.13;;;7.80;;
3177;SDS011;38141;42.666;23.344;2023-01-20T20:30:14;11.93;;;8.47;;
3177;SDS011;38141;42.666;23.344;2023-01-20T20:32:45;11.37;;;8.17;;
3177;SDS011;38141;42.666;23.344;2023-01-20T20:35:14;12.07;;;7.43;;
3177;SDS011;38141;42.666;23.344;2023-01-20T20:37:51;10.30;;;7.57;;
3177;SDS011;38141;42.666;23.344;2023-01-20T20:40:27;10.67;;;8.10;;
3177;SDS011;38141;42.666;23.344;2023-01-20T20:42:58;10.47;;;8.07;;
3177;SDS011;38141;42.666;23.344;2023-01-20T20:45:25;10.13;;;7.60;;
3177;SDS011;38141;42.666;23.344;2023-01-20T20:47:53;16.23;;;8.10;;
3177;SDS011;38141;42.666;23.344;2023-01-20T20:50:26;14.27;;;8.10;;
3177;SDS011;38141;42.666;23.344;2023-01-20T20:52:55;10.97;;;7.87;;
3177;SDS011;38141;42.666;23.344;2023-01-20T20:55:37;48.00;;;25.50;;
3177;SDS011;38141;42.666;23.344;2023-01-20T21:23:02;19.00;;;10.30;;
3177;SDS011;38141;42.666;23.344;2023-01-20T21:25:43;16.43;;;10.93;;
3177;SDS011;38141;42.666;23.344;2023-01-20T21:36:32;34.70;;;17.83;;
3177;SDS011;38141;42.666;23.344;2023-01-20T21:39:07;14.87;;;9.90;;
3177;SDS011;38141;42.666;23.344;2023-01-20T21:41:39;14.10;;;8.73;;
3177;SDS011;38141;42.666;23.344;2023-01-20T21:44:08;16.27;;;9.87;;
3177;SDS011;38141;42.666;23.344;2023-01-20T21:46:59;14.97;;;9.60;;
3177;SDS011;38141;42.666;23.344;2023-01-20T21:49:58;13.40;;;9.70;;
3177;SDS011;38141;42.666;23.344;2023-01-20T21:53:00;16.60;;;10.10;;
3177;SDS011;38141;42.666;23.344;2023-01-20T21:55:40;19.20;;;10.50;;
3177;SDS011;38141;42.666;23.344;2023-01-20T21:58:22;22.87;;;12.97;;
3177;SDS011;38141;42.666;23.344;2023-01-20T22:00:58;24.03;;;12.87;;
3177;SDS011;38141;42.666;23.344;2023-01-20T22:03:39;16.47;;;10.60;;
3177;SDS011;38141;42.666;23.344;2023-01-20T22:06:21;22.60;;;13.30;;
3177;SDS011;38141;42.666;23.344;2023-01-20T22:08:54;19.20;;;12.10;;
3177;SDS011;38141;42.666;23.344;2023-01-20T22:14:27;26.30;;;14.63;;
3177;SDS011;38141;42.666;23.344;2023-01-20T22:16:56;53.63;;;26.53;;
3177;SDS011;38141;42.666;23.344;2023-01-20T22:19:23;48.33;;;23.63;;
3177;SDS011;38141;42.666;23.344;2023-01-20T22:21:50;29.03;;;16.43;;
3177;SDS011;38141;42.666;23.344;2023-01-20T22:24:19;28.43;;;15.33;;
3177;SDS011;38141;42.666;23.344;2023-01-20T22:26:46;25.17;;;13.00;;
3177;SDS011;38141;42.666;23.344;2023-01-20T22:29:13;24.73;;;13.73;;
3177;SDS011;38141;42.666;23.344;2023-01-20T22:31:41;21.90;;;13.37;;
3177;SDS011;38141;42.666;23.344;2023-01-20T22:34:09;22.27;;;13.47;;
3177;SDS011;38141;42.666;23.344;2023-01-20T22:36:36;24.13;;;13.60;;
3177;SDS011;38141;42.666;23.344;2023-01-20T22:39:03;23.50;;;13.40;;
3177;SDS011;38141;42.666;23.344;2023-01-20T22:44:23;23.50;;;14.37;;
3177;SDS011;38141;42.666;23.344;2023-01-20T22:46:50;23.63;;;13.73;;
3177;SDS011;38141;42.666;23.344;2023-01-20T22:49:17;24.87;;;14.13;;
3177;SDS011;38141;42.666;23.344;2023-01-20T22:51:44;26.63;;;14.53;;
3177;SDS011;38141;42.666;23.344;2023-01-20T22:57:32;24.00;;;13.10;;
3177;SDS011;38141;42.666;23.344;2023-01-20T23:10:15;22.90;;;13.20;;
3177;SDS011;38141;42.666;23.344;2023-01-20T23:12:57;26.37;;;14.33;;
3177;SDS011;38141;42.666;23.344;2023-01-20T23:15:24;27.40;;;15.03;;
3177;SDS011;38141;42.666;23.344;2023-01-20T23:17:52;24.93;;;13.17;;
3177;SDS011;38141;42.666;23.344;2023-01-20T23:20:19;23.43;;;14.13;;
3177;SDS011;38141;42.666;23.344;2023-01-20T23:22:46;24.00;;;13.83;;
3177;SDS011;38141;42.666;23.344;2023-01-20T23:25:13;26.10;;;14.13;;
3177;SDS011;38141;42.666;23.344;2023-01-20T23:27:40;21.13;;;13.10;;
3177;SDS011;38141;42.666;23.344;2023-01-20T23:30:09;20.13;;;13.90;;
3177;SDS011;38141;42.666;23.344;2023-01-20T23:32:36;24.70;;;14.77;;
3177;SDS011;38141;42.666;23.344;2023-01-20T23:35:04;23.97;;;14.90;;
3177;SDS011;38141;42.666;23.344;2023-01-20T23:37:31;23.03;;;14.30;;
3177;SDS011;38141;42.666;23.344;2023-01-20T23:39:58;29.23;;;16.67;;
3177;SDS011;38141;42.666;23.344;2023-01-20T23:42:25;24.70;;;14.93;;
3177;SDS011;38141;42.666;23.344;2023-01-20T23:44:52;27.33;;;15.00;;
3177;SDS011;38141;42.666;23.344;2023-01-20T23:47:22;26.93;;;15.40;;
3177;SDS011;38141;42.666;23.344;2023-01-20T23:49:49;27.20;;;16.10;;
3177;SDS011;38141;42.666;23.344;2023-01-20T23:52:16;27.50;;;16.23;;
3177;SDS011;38141;42.666;23.344;2023-01-20T23:54:44;27.50;;;16.50;;
3177;SDS011;38141;42.666;23.344;2023-01-20T23:57:11;28.10;;;15.50;;
3177;SDS011;38141;42.666;23.344;2023-01-20T23:59:38;26.70;;;15.77;;
